createdAt,value
2023-03-10T00:02:13.077Z,8.10
2023-03-10T00:12:15.332Z,7.57
2023-03-10T00:22:22.974Z,7.60
2023-03-10T00:32:29.553Z,7.93
2023-03-10T00:42:36.930Z,8.93
2023-03-10T00:52:41.478Z,9.47
2023-03-10T01:02:51.750Z,5.20
2023-03-10T01:12:55.562Z,10.40
2023-03-10T01:23:04.280Z,10.33
2023-03-10T01:33:13.000Z,11.13
2023-03-10T01:43:34.527Z,7.60
2023-03-10T01:53:39.045Z,13.50
2023-03-10T02:03:48.254Z,15.47
2023-03-10T02:13:50.560Z,7.97
2023-03-10T02:24:01.756Z,13.53
2023-03-10T02:34:08.802Z,17.90
2023-03-10T02:44:15.295Z,15.70
2023-03-10T02:54:21.905Z,18.47
2023-03-10T03:04:27.297Z,19.13
2023-03-10T03:14:29.568Z,14.53
2023-03-10T03:24:35.142Z,14.70
2023-03-10T03:35:24.879Z,14.63
2023-03-10T03:45:29.769Z,19.73
2023-03-10T03:55:35.789Z,19.07
2023-03-10T04:05:43.967Z,17.80
2023-03-10T04:15:49.400Z,18.53
2023-03-10T04:25:51.837Z,18.80
2023-03-10T04:35:54.695Z,17.40
2023-03-10T04:46:02.150Z,18.57
2023-03-10T04:56:12.441Z,19.23
2023-03-10T05:06:20.516Z,16.63
2023-03-10T05:16:43.196Z,22.53
2023-03-10T05:26:50.431Z,21.50
2023-03-10T05:36:53.100Z,19.57
2023-03-10T05:46:55.399Z,21.67
2023-03-10T05:57:00.562Z,24.50
2023-03-10T06:07:10.052Z,21.33
2023-03-10T06:17:21.165Z,39.40
2023-03-10T06:27:35.371Z,31.13
2023-03-10T06:37:40.407Z,23.97
2023-03-10T06:47:46.380Z,32.93
2023-03-10T06:57:55.129Z,29.17
2023-03-10T07:07:59.101Z,35.47
2023-03-10T07:18:02.398Z,28.90
2023-03-10T07:28:07.710Z,35.10
2023-03-10T07:38:13.515Z,25.73
2023-03-10T07:48:18.230Z,12.00
2023-03-10T07:58:24.935Z,28.40
2023-03-10T08:08:32.254Z,31.97
2023-03-10T08:18:43.076Z,27.60
2023-03-10T08:28:48.883Z,28.80
2023-03-10T08:38:53.318Z,32.07
2023-03-10T08:49:04.754Z,27.93
2023-03-10T08:59:19.543Z,28.27
2023-03-10T09:09:21.834Z,29.57
2023-03-10T09:19:27.650Z,25.60
2023-03-10T09:29:42.569Z,27.47
2023-03-10T09:39:50.483Z,24.83
2023-03-10T09:50:33.098Z,26.30
2023-03-10T10:00:42.146Z,29.07
2023-03-10T10:10:52.306Z,22.33
2023-03-10T10:21:21.283Z,21.83
2023-03-10T10:31:29.922Z,21.27
2023-03-10T10:41:36.826Z,22.33
2023-03-10T10:51:40.931Z,20.33
2023-03-10T11:01:55.227Z,20.47
2023-03-10T11:12:39.107Z,14.93
2023-03-10T11:22:59.464Z,16.27
2023-03-10T11:33:03.805Z,14.83
2023-03-10T11:43:12.572Z,13.43
2023-03-10T11:53:29.696Z,13.37
2023-03-10T12:03:56.516Z,13.07
2023-03-10T12:14:01.388Z,10.47
2023-03-10T12:24:44.270Z,10.37
2023-03-10T12:35:25.353Z,9.27
2023-03-10T12:45:34.279Z,9.02
2023-03-10T12:55:43.729Z,7.47
2023-03-10T13:06:15.697Z,7.05
2023-03-10T13:16:23.721Z,5.80
2023-03-10T13:26:27.409Z,4.43
2023-03-10T13:36:38.185Z,3.17
2023-03-10T13:47:01.475Z,3.40
2023-03-10T13:57:27.296Z,3.25
2023-03-10T14:07:37.786Z,3.33
2023-03-10T14:17:44.812Z,3.25
2023-03-10T14:27:59.186Z,3.63
2023-03-10T14:38:05.434Z,3.70
2023-03-10T14:48:14.046Z,3.30
2023-03-10T14:58:35.846Z,3.38
2023-03-10T15:08:43.472Z,2.70
2023-03-10T15:18:49.452Z,3.38
2023-03-10T15:28:59.486Z,3.40
2023-03-10T15:39:04.871Z,3.33
2023-03-10T15:49:15.398Z,2.72
2023-03-10T15:59:19.870Z,3.72
2023-03-10T16:09:22.302Z,3.42
2023-03-10T16:19:36.066Z,4.90
2023-03-10T16:29:43.040Z,4.32
2023-03-10T16:39:45.809Z,4.25
2023-03-10T16:49:51.525Z,6.15
2023-03-10T16:59:57.095Z,5.28
2023-03-10T17:10:00.220Z,6.13
2023-03-10T17:20:09.275Z,5.38
2023-03-10T17:30:12.544Z,4.43
2023-03-10T17:40:21.745Z,7.53
2023-03-10T17:50:28.653Z,5.80
2023-03-10T18:00:36.280Z,6.32
2023-03-10T18:10:46.042Z,6.47
2023-03-10T18:20:54.688Z,6.70
2023-03-10T18:31:00.324Z,6.88
2023-03-10T18:41:15.074Z,5.53
2023-03-10T18:51:19.820Z,6.03
2023-03-10T19:01:28.568Z,7.43
2023-03-10T19:11:41.274Z,6.93
2023-03-10T19:21:45.100Z,9.30
2023-03-10T19:31:53.230Z,7.82
2023-03-10T19:42:00.948Z,10.00
2023-03-10T19:52:12.414Z,9.67
2023-03-10T20:02:16.681Z,8.23
2023-03-10T20:12:21.107Z,7.72
2023-03-10T20:22:25.484Z,8.90
2023-03-10T20:32:32.437Z,8.98
2023-03-10T20:42:37.129Z,7.95
2023-03-10T20:52:43.307Z,7.45
2023-03-10T21:02:49.469Z,8.65
2023-03-10T21:12:51.888Z,12.87
2023-03-10T21:22:56.581Z,16.58
2023-03-10T21:33:01.014Z,17.73
2023-03-10T21:43:05.738Z,22.03
2023-03-10T21:53:10.349Z,21.73
2023-03-10T22:03:21.070Z,21.73
2023-03-10T22:13:26.265Z,22.30
2023-03-10T22:23:30.544Z,21.83
2023-03-10T22:33:34.412Z,18.37
2023-03-10T22:43:38.916Z,15.40
2023-03-10T22:53:41.829Z,15.47
2023-03-10T23:03:43.912Z,14.70
2023-03-10T23:13:51.090Z,13.70
2023-03-10T23:23:54.706Z,14.43
2023-03-10T23:33:56.901Z,14.67
2023-03-10T23:44:02.057Z,14.43
2023-03-10T23:54:04.612Z,13.80
